createdAt,value
2018-05-23T00:01:29.754Z,101339.65
2018-05-23T00:03:57.298Z,101340.09
2018-05-23T00:06:24.805Z,101337.59
2018-05-23T00:08:52.293Z,101339.94
2018-05-23T00:11:19.823Z,101338.42
2018-05-23T00:13:47.626Z,101342.83
2018-05-23T00:16:15.385Z,101343.31
2018-05-23T00:18:44.149Z,101349.34
2018-05-23T00:21:11.667Z,101348.98
2018-05-23T00:23:39.491Z,101347.97
2018-05-23T00:26:07.040Z,101344.80
2018-05-23T00:28:34.562Z,101352.30
2018-05-23T00:31:03.183Z,101354.28
2018-05-23T00:33:30.775Z,101353.26
2018-05-23T00:35:58.285Z,101344.86
2018-05-23T00:38:26.094Z,101338.73
2018-05-23T00:40:53.966Z,101344.86
2018-05-23T00:43:21.812Z,101359.34
2018-05-23T00:45:49.327Z,101358.98
2018-05-23T00:48:17.191Z,101357.54
2018-05-23T00:50:44.681Z,101360.89
2018-05-23T00:53:12.194Z,101351.44
2018-05-23T00:55:39.725Z,101355.19
2018-05-23T00:58:07.582Z,101350.09
2018-05-23T01:00:35.371Z,101357.33
2018-05-23T01:03:02.922Z,101358.98
2018-05-23T01:05:30.457Z,101362.73
2018-05-23T01:07:58.049Z,101362.55
2018-05-23T01:10:25.607Z,101364.79
2018-05-23T01:12:53.135Z,101367.02
2018-05-23T01:15:20.733Z,101377.59
2018-05-23T01:17:48.363Z,101373.11
2018-05-23T01:20:15.866Z,101376.28
2018-05-23T01:22:43.550Z,101375.66
2018-05-23T01:25:11.570Z,101377.54
2018-05-23T01:27:39.086Z,101386.27
2018-05-23T01:30:06.637Z,101380.28
2018-05-23T01:32:34.204Z,101383.05
2018-05-23T01:35:01.792Z,101384.97
2018-05-23T01:37:29.377Z,101394.08
2018-05-23T01:39:57.759Z,101394.17
2018-05-23T01:42:25.291Z,101388.09
2018-05-23T01:44:53.106Z,101395.38
2018-05-23T01:47:20.666Z,101397.45
2018-05-23T01:49:48.252Z,101401.03
2018-05-23T01:52:16.097Z,101396.77
2018-05-23T01:54:43.615Z,101398.12
2018-05-23T01:57:11.160Z,101403.33
2018-05-23T01:59:38.684Z,101403.05
2018-05-23T02:02:06.261Z,101399.11
2018-05-23T02:04:33.762Z,101408.19
2018-05-23T02:07:01.302Z,101401.12
2018-05-23T02:09:28.822Z,101401.32
2018-05-23T02:11:56.689Z,101399.87
2018-05-23T02:14:24.278Z,101400.39
2018-05-23T02:16:51.808Z,101398.63
2018-05-23T02:19:19.333Z,101403.44
2018-05-23T02:21:47.364Z,101396.62
2018-05-23T02:24:15.384Z,101400.36
2018-05-23T02:26:43.512Z,101400.88
2018-05-23T02:29:11.044Z,101399.84
2018-05-23T02:31:38.574Z,101406.94
2018-05-23T02:34:06.098Z,101408.81
2018-05-23T02:36:33.669Z,101404.73
2018-05-23T02:39:01.174Z,101414.22
2018-05-23T02:41:29.040Z,101408.92
2018-05-23T02:43:57.961Z,101413.20
2018-05-23T02:46:25.489Z,101413.83
2018-05-23T02:48:53.007Z,101415.00
2018-05-23T02:51:20.821Z,101417.30
2018-05-23T02:53:48.338Z,101417.74
2018-05-23T02:56:15.865Z,101417.20
2018-05-23T02:58:43.378Z,101417.84
2018-05-23T03:01:10.926Z,101422.23
2018-05-23T03:03:38.910Z,101418.80
2018-05-23T03:06:06.435Z,101423.69
2018-05-23T03:08:33.993Z,101425.86
2018-05-23T03:11:01.526Z,101427.31
2018-05-23T03:13:29.079Z,101427.94
2018-05-23T03:15:56.628Z,101433.96
2018-05-23T03:18:24.147Z,101433.11
2018-05-23T03:20:51.775Z,101446.83
2018-05-23T03:23:19.297Z,101445.80
2018-05-23T03:25:46.808Z,101446.62
2018-05-23T03:28:14.331Z,101455.16
2018-05-23T03:30:42.110Z,101468.76
2018-05-23T03:33:09.625Z,101464.30
2018-05-23T03:35:37.435Z,101465.84
2018-05-23T03:38:05.197Z,101468.23
2018-05-23T03:40:32.722Z,101466.36
2018-05-23T03:43:00.240Z,101470.44
2018-05-23T03:45:27.789Z,101468.58
2018-05-23T03:47:55.368Z,101471.47
2018-05-23T03:50:22.907Z,101473.66
2018-05-23T03:52:50.485Z,101477.52
2018-05-23T03:55:18.070Z,101480.73
2018-05-23T03:57:45.569Z,101480.21
2018-05-23T04:00:24.874Z,101482.06
2018-05-23T04:03:04.380Z,101492.77
2018-05-23T04:05:44.794Z,101489.33
2018-05-23T04:08:12.325Z,101501.08
2018-05-23T04:10:39.819Z,101502.95
2018-05-23T04:13:07.343Z,101504.49
2018-05-23T04:15:34.850Z,101507.01
2018-05-23T04:18:02.449Z,101512.59
2018-05-23T04:20:29.975Z,101505.64
2018-05-23T04:22:57.531Z,101508.45
2018-05-23T04:25:25.358Z,101516.13
2018-05-23T04:27:52.889Z,101513.12
2018-05-23T04:30:20.411Z,101509.17
2018-05-23T04:32:47.974Z,101509.38
2018-05-23T04:35:15.487Z,101510.32
2018-05-23T04:37:43.023Z,101512.92
2018-05-23T04:40:10.618Z,101510.32
2018-05-23T04:42:38.928Z,101518.95
2018-05-23T04:45:07.027Z,101518.10
2018-05-23T04:47:34.548Z,101524.13
2018-05-23T04:50:02.057Z,101529.13
2018-05-23T04:52:29.609Z,101533.70
2018-05-23T04:54:57.114Z,101535.35
2018-05-23T04:57:24.634Z,101539.94
2018-05-23T04:59:52.159Z,101536.49
2018-05-23T05:02:19.725Z,101539.72
2018-05-23T05:04:47.300Z,101539.07
2018-05-23T05:07:14.848Z,101542.08
2018-05-23T05:09:42.372Z,101548.75
2018-05-23T05:12:10.188Z,101553.41
2018-05-23T05:14:37.727Z,101554.66
2018-05-23T05:17:05.276Z,101561.20
2018-05-23T05:19:32.948Z,101565.05
2018-05-23T05:22:00.774Z,101566.59
2018-05-23T05:24:28.289Z,101573.04
2018-05-23T05:26:55.976Z,101572.70
2018-05-23T05:29:23.829Z,101581.23
2018-05-23T05:31:51.437Z,101576.29
2018-05-23T05:34:19.566Z,101584.48
2018-05-23T05:36:47.077Z,101587.08
2018-05-23T05:39:14.605Z,101583.02
2018-05-23T05:41:42.137Z,101583.93
2018-05-23T05:44:09.669Z,101590.08
2018-05-23T05:46:37.655Z,101590.78
2018-05-23T05:49:05.563Z,101593.77
2018-05-23T05:51:33.645Z,101597.52
2018-05-23T05:54:01.349Z,101610.53
2018-05-23T05:56:28.874Z,101610.71
2018-05-23T05:58:56.435Z,101608.91
2018-05-23T06:01:23.998Z,101607.33
2018-05-23T06:03:52.072Z,101603.14
2018-05-23T06:06:19.748Z,101609.80
2018-05-23T06:08:47.680Z,101613.00
2018-05-23T06:11:15.246Z,101614.08
2018-05-23T06:13:42.824Z,101616.83
2018-05-23T06:16:10.369Z,101619.28
2018-05-23T06:18:37.920Z,101617.94
2018-05-23T06:21:05.475Z,101620.50
2018-05-23T06:23:33.015Z,101623.48
2018-05-23T06:26:00.563Z,101623.48
2018-05-23T06:28:28.469Z,101624.33
2018-05-23T06:30:56.004Z,101620.97
2018-05-23T06:33:23.567Z,101629.92
2018-05-23T06:35:51.126Z,101630.91
2018-05-23T06:38:18.832Z,101637.91
2018-05-23T06:40:46.348Z,101637.30
2018-05-23T06:43:13.896Z,101645.37
2018-05-23T06:45:41.701Z,101643.02
2018-05-23T06:48:09.362Z,101643.95
2018-05-23T06:50:36.876Z,101646.25
2018-05-23T06:53:04.398Z,101651.73
2018-05-23T06:55:31.917Z,101654.50
2018-05-23T06:57:59.601Z,101644.52
2018-05-23T07:00:27.278Z,101650.76
2018-05-23T07:02:54.806Z,101647.77
2018-05-23T07:05:22.384Z,101647.50
2018-05-23T07:07:49.940Z,101655.75
2018-05-23T07:10:17.711Z,101651.48
2018-05-23T07:12:45.333Z,101639.12
2018-05-23T07:15:12.895Z,101641.17
2018-05-23T07:17:40.461Z,101649.91
2018-05-23T07:20:08.978Z,101646.89
2018-05-23T07:22:36.529Z,101648.20
2018-05-23T07:25:04.507Z,101651.15
2018-05-23T07:27:32.031Z,101655.95
2018-05-23T07:29:59.561Z,101655.34
2018-05-23T07:32:27.074Z,101660.21
2018-05-23T07:34:54.591Z,101660.41
2018-05-23T07:37:22.417Z,101661.94
2018-05-23T07:39:50.005Z,101660.77
2018-05-23T07:42:17.532Z,101660.52
2018-05-23T07:44:45.164Z,101656.16
2018-05-23T07:47:12.683Z,101663.15
2018-05-23T07:49:40.734Z,101666.89
2018-05-23T07:52:08.278Z,101663.13
2018-05-23T07:54:35.799Z,101666.34
2018-05-23T07:57:03.569Z,101663.25
2018-05-23T07:59:31.103Z,101670.81
2018-05-23T08:01:59.546Z,101672.44
2018-05-23T08:04:27.367Z,101671.47
2018-05-23T08:06:54.901Z,101677.79
2018-05-23T08:09:22.454Z,101670.47
2018-05-23T08:11:50.319Z,101679.84
2018-05-23T08:14:17.888Z,101677.54
2018-05-23T08:16:45.448Z,101677.86
2018-05-23T08:19:13.103Z,101668.98
2018-05-23T08:21:40.607Z,101676.73
2018-05-23T08:24:08.387Z,101668.38
2018-05-23T08:26:35.937Z,101676.31
2018-05-23T08:29:03.504Z,101680.27
2018-05-23T08:31:31.315Z,101683.20
2018-05-23T08:33:58.888Z,101678.38
2018-05-23T08:36:26.461Z,101684.14
2018-05-23T08:38:54.017Z,101685.25
2018-05-23T08:41:21.574Z,101685.88
2018-05-23T08:43:49.543Z,101680.80
2018-05-23T08:46:17.150Z,101671.41
2018-05-23T08:48:45.129Z,101678.25
2018-05-23T08:51:12.729Z,101685.58
2018-05-23T08:53:40.273Z,101688.09
2018-05-23T08:56:08.047Z,101687.62
2018-05-23T08:58:35.550Z,101692.43
2018-05-23T09:01:03.081Z,101688.28
2018-05-23T09:03:30.931Z,101686.52
2018-05-23T09:05:58.539Z,101697.10
2018-05-23T09:08:26.046Z,101696.88
2018-05-23T09:10:53.574Z,101696.66
2018-05-23T09:13:21.386Z,101695.43
2018-05-23T09:15:48.912Z,101702.04
2018-05-23T09:18:16.417Z,101695.67
2018-05-23T09:20:44.167Z,101704.92
2018-05-23T09:23:11.690Z,101706.41
2018-05-23T09:25:39.266Z,101705.30
2018-05-23T09:28:06.764Z,101698.64
2018-05-23T09:30:34.305Z,101708.86
2018-05-23T09:33:02.169Z,101708.92
2018-05-23T09:35:29.833Z,101710.18
2018-05-23T09:37:57.339Z,101709.34
2018-05-23T09:40:24.884Z,101705.30
2018-05-23T09:42:52.461Z,101713.27
2018-05-23T09:45:19.999Z,101712.92
2018-05-23T09:47:47.685Z,101716.32
2018-05-23T09:50:15.274Z,101706.55
2018-05-23T09:52:42.858Z,101702.48
2018-05-23T09:55:10.496Z,101701.70
2018-05-23T09:57:37.926Z,101706.88
2018-05-23T10:00:05.471Z,101706.38
2018-05-23T10:02:32.974Z,101718.31
2018-05-23T10:05:00.504Z,101712.80
2018-05-23T10:07:28.150Z,101708.03
2018-05-23T10:09:55.691Z,101700.77
2018-05-23T10:12:23.215Z,101705.91
2018-05-23T10:14:50.742Z,101698.69
2018-05-23T10:17:18.280Z,101711.48
2018-05-23T10:19:45.816Z,101706.38
2018-05-23T10:22:13.313Z,101709.06
2018-05-23T10:24:40.915Z,101709.86
2018-05-23T10:27:08.452Z,101710.59
2018-05-23T10:29:35.995Z,101715.77
2018-05-23T10:32:03.524Z,101714.78
2018-05-23T10:34:31.046Z,101716.11
2018-05-23T10:36:58.706Z,101727.98
2018-05-23T10:39:27.908Z,101719.11
2018-05-23T10:41:55.749Z,101724.70
2018-05-23T10:44:23.505Z,101724.76
2018-05-23T10:46:51.037Z,101717.38
2018-05-23T10:49:18.911Z,101730.25
2018-05-23T10:51:46.564Z,101731.02
2018-05-23T10:54:14.180Z,101731.38
2018-05-23T10:56:41.768Z,101740.75
2018-05-23T10:59:09.271Z,101734.02
2018-05-23T11:01:36.785Z,101737.10
2018-05-23T11:04:04.289Z,101720.80
2018-05-23T11:06:32.160Z,101728.45
2018-05-23T11:08:59.844Z,101735.16
2018-05-23T11:11:27.670Z,101733.84
2018-05-23T11:13:55.192Z,101734.27
2018-05-23T11:16:22.914Z,101728.37
2018-05-23T11:18:50.475Z,101733.83
2018-05-23T11:21:18.336Z,101728.11
2018-05-23T11:23:45.850Z,101729.06
2018-05-23T11:26:13.370Z,101725.87
2018-05-23T11:28:41.122Z,101724.85
2018-05-23T11:31:08.794Z,101724.55
2018-05-23T11:33:36.644Z,101721.23
2018-05-23T11:36:04.223Z,101720.16
2018-05-23T11:38:31.747Z,101712.44
2018-05-23T11:40:59.338Z,101707.73
2018-05-23T11:43:27.007Z,101710.91
2018-05-23T11:45:54.622Z,101707.07
2018-05-23T11:48:22.244Z,101709.44
2018-05-23T11:50:49.787Z,101708.45
2018-05-23T11:53:17.342Z,101714.80
2018-05-23T11:55:45.008Z,101710.58
2018-05-23T11:58:12.642Z,101706.33
2018-05-23T12:00:40.181Z,101704.99
2018-05-23T12:03:07.922Z,101712.65
2018-05-23T12:05:35.506Z,101701.83
2018-05-23T12:08:03.015Z,101702.67
2018-05-23T12:10:30.852Z,101701.40
2018-05-23T12:12:58.291Z,101706.44
2018-05-23T12:15:25.833Z,101706.09
2018-05-23T12:17:53.374Z,101709.15
2018-05-23T12:20:20.895Z,101708.33
2018-05-23T12:22:48.427Z,101697.53
2018-05-23T12:25:16.182Z,101704.92
2018-05-23T12:27:43.708Z,101705.59
2018-05-23T12:30:11.214Z,101704.74
2018-05-23T12:32:38.757Z,101702.23
2018-05-23T12:35:07.114Z,101700.18
2018-05-23T12:37:34.673Z,101701.30
2018-05-23T12:40:02.332Z,101701.23
2018-05-23T12:42:29.970Z,101698.27
2018-05-23T12:44:57.561Z,101700.23
2018-05-23T12:47:25.523Z,101699.00
2018-05-23T12:49:53.096Z,101697.62
2018-05-23T12:52:20.643Z,101699.16
2018-05-23T12:54:48.310Z,101701.52
2018-05-23T12:57:15.867Z,101699.25
2018-05-23T12:59:43.640Z,101693.57
2018-05-23T13:02:11.153Z,101691.09
2018-05-23T13:04:38.657Z,101692.53
2018-05-23T13:07:06.218Z,101701.58
2018-05-23T13:09:33.740Z,101698.20
2018-05-23T13:12:01.266Z,101697.76
2018-05-23T13:14:28.918Z,101703.05
2018-05-23T13:16:56.440Z,101702.73
2018-05-23T13:19:24.311Z,101694.16
2018-05-23T13:21:51.842Z,101699.62
2018-05-23T13:24:19.337Z,101696.94
2018-05-23T13:26:46.984Z,101699.08
2018-05-23T13:29:14.502Z,101700.67
2018-05-23T13:31:42.063Z,101685.70
2018-05-23T13:34:09.549Z,101687.53
2018-05-23T13:36:37.180Z,101685.78
2018-05-23T13:39:05.478Z,101691.34
2018-05-23T13:41:32.994Z,101682.55
2018-05-23T13:44:00.489Z,101683.96
2018-05-23T13:46:28.092Z,101679.41
2018-05-23T13:48:55.599Z,101676.06
2018-05-23T13:51:23.134Z,101681.39
2018-05-23T13:53:50.640Z,101678.56
2018-05-23T13:56:18.187Z,101673.70
2018-05-23T13:58:46.712Z,101683.18
2018-05-23T14:01:14.277Z,101684.42
2018-05-23T14:03:41.890Z,101680.47
2018-05-23T14:06:09.701Z,101671.44
2018-05-23T14:08:37.396Z,101678.66
2018-05-23T14:11:06.667Z,101671.30
2018-05-23T14:13:34.178Z,101669.94
2018-05-23T14:16:01.695Z,101678.56
2018-05-23T14:18:29.326Z,101673.97
2018-05-23T14:20:56.822Z,101672.08
2018-05-23T14:23:24.351Z,101663.36
2018-05-23T14:25:51.931Z,101666.48
2018-05-23T14:28:19.456Z,101657.63
2018-05-23T14:30:46.963Z,101658.16
2018-05-23T14:33:14.559Z,101662.04
2018-05-23T14:35:42.415Z,101665.13
2018-05-23T14:38:10.057Z,101666.09
2018-05-23T14:40:37.549Z,101656.58
2018-05-23T14:43:05.357Z,101653.64
2018-05-23T14:45:33.233Z,101660.00
2018-05-23T14:48:00.846Z,101659.41
2018-05-23T14:50:29.369Z,101656.11
2018-05-23T14:52:56.903Z,101665.10
2018-05-23T14:55:24.478Z,101666.94
2018-05-23T14:57:52.011Z,101660.70
2018-05-23T15:00:19.553Z,101655.62
2018-05-23T15:02:47.102Z,101657.34
2018-05-23T15:05:14.638Z,101661.89
2018-05-23T15:07:42.172Z,101658.84
2018-05-23T15:10:09.696Z,101663.42
2018-05-23T15:12:37.268Z,101665.44
2018-05-23T15:15:04.920Z,101657.73
2018-05-23T15:17:32.583Z,101660.19
2018-05-23T15:20:00.384Z,101662.80
2018-05-23T15:22:28.186Z,101663.56
2018-05-23T15:24:55.707Z,101661.41
2018-05-23T15:27:23.273Z,101668.06
2018-05-23T15:29:50.892Z,101670.39
2018-05-23T15:32:18.621Z,101660.25
2018-05-23T15:34:46.719Z,101663.81
2018-05-23T15:37:14.647Z,101668.13
2018-05-23T15:39:42.510Z,101663.06
2018-05-23T15:42:10.421Z,101657.58
2018-05-23T15:44:37.962Z,101663.06
2018-05-23T15:47:05.499Z,101665.41
2018-05-23T15:49:33.038Z,101658.84
2018-05-23T15:52:00.603Z,101661.11
2018-05-23T15:54:28.426Z,101658.86
2018-05-23T15:56:55.981Z,101656.18
2018-05-23T15:59:23.517Z,101659.52
2018-05-23T16:01:51.058Z,101653.05
2018-05-23T16:04:18.879Z,101653.36
2018-05-23T16:06:46.512Z,101658.71
2018-05-23T16:09:14.058Z,101663.18
2018-05-23T16:11:41.645Z,101656.67
2018-05-23T16:14:09.433Z,101656.92
2018-05-23T16:16:37.572Z,101663.70
2018-05-23T16:19:09.087Z,101662.12
2018-05-23T16:21:37.480Z,101657.63
2018-05-23T16:24:06.021Z,101659.89
2018-05-23T16:26:33.839Z,101661.67
2018-05-23T16:29:03.286Z,101661.73
2018-05-23T16:31:33.642Z,101666.16
2018-05-23T16:34:01.383Z,101660.62
2018-05-23T16:36:31.730Z,101651.87
2018-05-23T16:39:00.425Z,101653.55
2018-05-23T16:41:28.026Z,101661.78
2018-05-23T16:43:55.668Z,101650.93
2018-05-23T16:46:24.598Z,101664.28
2018-05-23T16:48:52.703Z,101657.16
2018-05-23T16:51:21.411Z,101660.89
2018-05-23T16:53:49.191Z,101660.84
2018-05-23T16:56:16.814Z,101666.35
2018-05-23T16:58:46.549Z,101662.42
2018-05-23T17:01:16.262Z,101667.84
2018-05-23T17:03:43.777Z,101671.61
2018-05-23T17:06:11.427Z,101672.88
2018-05-23T17:08:39.020Z,101669.94
2018-05-23T17:11:06.602Z,101675.35
2018-05-23T17:13:34.266Z,101675.45
2018-05-23T17:16:01.862Z,101686.78
2018-05-23T17:18:30.565Z,101682.29
2018-05-23T17:20:59.169Z,101690.89
2018-05-23T17:23:27.443Z,101687.83
2018-05-23T17:25:55.379Z,101691.94
2018-05-23T17:28:24.243Z,101684.80
2018-05-23T17:30:52.794Z,101698.98
2018-05-23T17:33:21.051Z,101701.58
2018-05-23T17:35:49.657Z,101706.22
2018-05-23T17:38:17.423Z,101713.31
2018-05-23T17:40:44.978Z,101711.95
2018-05-23T17:43:12.531Z,101714.98
2018-05-23T17:45:40.084Z,101716.87
2018-05-23T17:48:07.625Z,101721.97
2018-05-23T17:50:35.186Z,101723.44
2018-05-23T17:53:02.831Z,101722.80
2018-05-23T17:55:30.641Z,101723.74
2018-05-23T17:57:58.165Z,101719.03
2018-05-23T18:00:25.684Z,101720.94
2018-05-23T18:02:53.181Z,101723.33
2018-05-23T18:05:20.739Z,101720.11
2018-05-23T18:07:48.255Z,101726.25
2018-05-23T18:10:15.810Z,101723.83
2018-05-23T18:12:43.565Z,101722.80
2018-05-23T18:15:11.094Z,101726.41
2018-05-23T18:17:38.737Z,101727.19
2018-05-23T18:20:06.249Z,101732.23
2018-05-23T18:22:33.770Z,101731.58
2018-05-23T18:25:01.618Z,101729.18
2018-05-23T18:27:29.129Z,101728.44
2018-05-23T18:29:56.666Z,101732.02
2018-05-23T18:32:25.085Z,101738.28
2018-05-23T18:34:52.616Z,101730.90
2018-05-23T18:37:20.135Z,101735.55
2018-05-23T18:39:47.917Z,101735.17
2018-05-23T18:42:15.428Z,101742.58
2018-05-23T18:44:43.164Z,101739.53
2018-05-23T18:47:11.235Z,101750.70
2018-05-23T18:49:39.763Z,101749.25
2018-05-23T18:52:09.463Z,101753.63
2018-05-23T18:54:38.050Z,101752.77
2018-05-23T18:57:05.667Z,101748.27
2018-05-23T18:59:33.958Z,101755.29
2018-05-23T19:02:04.553Z,101750.78
2018-05-23T19:04:34.123Z,101757.45
2018-05-23T19:07:02.895Z,101754.77
2018-05-23T19:09:30.883Z,101766.20
2018-05-23T19:11:58.850Z,101767.45
2018-05-23T19:14:26.407Z,101768.07
2018-05-23T19:16:59.204Z,101779.54
2018-05-23T19:19:26.973Z,101785.78
2018-05-23T19:21:54.793Z,101793.71
2018-05-23T19:24:22.588Z,101794.66
2018-05-23T19:26:50.250Z,101795.87
2018-05-23T19:29:21.437Z,101796.52
2018-05-23T19:31:50.308Z,101805.34
2018-05-23T19:34:17.936Z,101809.39
2018-05-23T19:36:46.886Z,101812.83
2018-05-23T19:39:14.396Z,101809.74
2018-05-23T19:41:42.963Z,101815.30
2018-05-23T19:44:11.505Z,101818.80
2018-05-23T19:46:41.299Z,101823.16
2018-05-23T19:49:10.073Z,101824.45
2018-05-23T19:51:39.578Z,101827.94
2018-05-23T19:54:07.922Z,101823.98
2018-05-23T19:56:37.136Z,101830.78
2018-05-23T19:59:05.242Z,101828.36
2018-05-23T20:01:32.802Z,101833.73
2018-05-23T20:04:02.747Z,101830.17
2018-05-23T20:06:31.720Z,101834.38
2018-05-23T20:09:01.548Z,101830.75
2018-05-23T20:11:33.248Z,101832.17
2018-05-23T20:14:01.597Z,101837.13
2018-05-23T20:16:32.476Z,101829.30
2018-05-23T20:19:01.805Z,101832.12
2018-05-23T20:21:32.318Z,101840.88
2018-05-23T20:24:00.311Z,101834.80
2018-05-23T20:26:28.474Z,101840.55
2018-05-23T20:28:56.064Z,101841.41
2018-05-23T20:31:29.406Z,101842.01
2018-05-23T20:33:57.935Z,101840.75
2018-05-23T20:36:25.880Z,101839.32
2018-05-23T20:38:53.471Z,101840.02
2018-05-23T20:41:20.992Z,101834.00
2018-05-23T20:43:48.613Z,101837.50
2018-05-23T20:46:16.366Z,101838.36
2018-05-23T20:48:43.942Z,101832.20
2018-05-23T20:51:12.110Z,101832.27
2018-05-23T20:53:39.636Z,101827.38
2018-05-23T20:56:07.182Z,101828.63
2018-05-23T20:58:34.774Z,101832.80
2018-05-23T21:01:02.287Z,101836.35
2018-05-23T21:03:29.782Z,101837.80
2018-05-23T21:05:57.357Z,101831.31
2018-05-23T21:08:24.960Z,101834.19
2018-05-23T21:10:52.497Z,101828.95
2018-05-23T21:13:20.451Z,101828.70
2018-05-23T21:15:48.221Z,101834.45
2018-05-23T21:18:15.793Z,101837.19
2018-05-23T21:20:43.355Z,101826.84
2018-05-23T21:23:10.874Z,101833.45
2018-05-23T21:25:38.406Z,101832.65
2018-05-23T21:28:05.921Z,101835.08
2018-05-23T21:30:33.448Z,101826.93
2018-05-23T21:33:01.010Z,101830.14
2018-05-23T21:35:28.755Z,101829.98
2018-05-23T21:37:56.354Z,101836.98
2018-05-23T21:40:23.883Z,101840.65
2018-05-23T21:42:51.420Z,101837.32
2018-05-23T21:45:19.006Z,101836.30
2018-05-23T21:47:46.803Z,101835.55
2018-05-23T21:50:14.309Z,101841.91
2018-05-23T21:52:41.829Z,101839.97
2018-05-23T21:55:09.373Z,101843.02
2018-05-23T21:57:36.917Z,101846.48
2018-05-23T22:00:04.429Z,101842.34
2018-05-23T22:02:31.973Z,101846.11
2018-05-23T22:04:59.501Z,101846.73
2018-05-23T22:07:27.025Z,101847.42
2018-05-23T22:09:54.547Z,101849.16
2018-05-23T22:12:22.078Z,101849.88
2018-05-23T22:14:49.583Z,101851.37
2018-05-23T22:17:17.142Z,101844.36
2018-05-23T22:19:44.983Z,101846.71
2018-05-23T22:22:12.548Z,101844.64
2018-05-23T22:24:40.198Z,101848.30
2018-05-23T22:27:07.620Z,101842.72
2018-05-23T22:29:35.139Z,101848.20
2018-05-23T22:32:02.774Z,101847.59
2018-05-23T22:34:30.313Z,101849.16
2018-05-23T22:36:57.840Z,101858.63
2018-05-23T22:39:25.353Z,101854.33
2018-05-23T22:41:52.880Z,101852.14
2018-05-23T22:44:20.690Z,101850.37
2018-05-23T22:46:48.238Z,101852.16
2018-05-23T22:49:15.763Z,101858.11
2018-05-23T22:51:44.127Z,101857.74
2018-05-23T22:54:11.636Z,101851.33
2018-05-23T22:56:39.147Z,101862.65
2018-05-23T22:59:06.645Z,101865.60
2018-05-23T23:01:34.218Z,101873.86
2018-05-23T23:04:01.793Z,101876.80
2018-05-23T23:06:29.398Z,101879.71
2018-05-23T23:08:56.908Z,101890.45
2018-05-23T23:11:24.776Z,101889.24
2018-05-23T23:13:52.312Z,101888.63
2018-05-23T23:16:20.090Z,101873.95
2018-05-23T23:18:48.468Z,101888.70
2018-05-23T23:21:16.239Z,101884.73
2018-05-23T23:23:43.791Z,101885.61
2018-05-23T23:26:11.395Z,101891.34
2018-05-23T23:28:38.936Z,101893.42
2018-05-23T23:31:06.465Z,101894.26
2018-05-23T23:33:34.248Z,101891.97
2018-05-23T23:36:01.754Z,101893.05
2018-05-23T23:38:29.401Z,101894.81
2018-05-23T23:40:56.943Z,101902.84
2018-05-23T23:43:24.801Z,101899.53
2018-05-23T23:45:52.303Z,101905.58
2018-05-23T23:48:19.822Z,101909.86
2018-05-23T23:50:47.325Z,101906.83
2018-05-23T23:53:14.868Z,101908.89
2018-05-23T23:55:42.422Z,101918.41
2018-05-23T23:58:09.957Z,101917.15
